UMMS

Minsk International Airport

Minsk, Belarus
TAF UMMS 251705Z 2518/2618 22006MPS 5000 -RA BR BKN004 BKN015 TEMPO 2518/2607 VRB14MPS 1200 TSRA SQ BKN003 BKN020CB FM260700 27006G11MPS 9999 BKN015 TEMPO 2607/2618 27009G14MPS 3000 -SHRA BKN005 SCT020CB
Issued Valid From Valid To
Apr-25 @ 17:05 UTC
(48 minutes ago)
Apr-25 @ 18:00 UTC
(in 7 minutes)
Apr-26 @ 18:00 UTC
(in 24 hours)
Apr-25 @ 18:00 to Apr-26 @ 07:00
TAF UMMS 251705Z 2518/2618 22006MPS 5000 -RA BR BKN004 BKN015
Wind Visibility Clouds Conditions
220° at 12 knots 5,005 meters
  • Broken at 400' AGL
  • Broken at 1,500' AGL
  • Light Rain
  • Mist
Temporary Apr-25 @ 18:00 to Apr-26 @ 07:00
TEMPO 2518/2607 VRB14MPS 1200 TSRA SQ BKN003 BKN020CB
Wind Visibility Clouds Conditions
Variable at 27 knots 1,207 meters
  • Broken at 300' AGL
  • Broken at 2,000' AGL
  • Thunderstorm
  • Rain
  • Squalls
From Apr-26 @ 07:00 to Apr-26 @ 18:00
FM260700 27006G11MPS 9999 BKN015
Wind Visibility Clouds
270° at 12 knots
 Gusting to 21 knots
10,000+ meters
  • Broken at 1,500' AGL
Temporary Apr-26 @ 07:00 to Apr-26 @ 18:00
TEMPO 2607/2618 27009G14MPS 3000 -SHRA BKN005 SCT020CB
Wind Visibility Clouds Conditions
270° at 17 knots
 Gusting to 27 knots
2,993 meters
  • Broken at 500' AGL
  • Scattered at 2,000' AGL
  • Light Rain
TAF UMMS 251705Z 2518/2618 22006MPS 5000 -RA BR BKN004 BKN015 TEMPO 2518/2607 VRB14MPS 1200 TSRA SQ BKN003 BKN020CB FM260700 27006G11MPS 9999 BKN015 TEMPO 2607/2618 27009G14MPS 3000 -SHRA BKN005 SCT020CB
Issued Apr-25 @ 17:05 UTC
(48 minutes ago)
Valid From Apr-25 @ 18:00 UTC
(in 7 minutes)
Valid To Apr-26 @ 18:00 UTC
(in 24 hours)
Apr-25 @ 18:00 - Apr-26 @ 07:00
Wind Visibility
220° at 12 knots 5,005 meters
Clouds
  • Broken at 400' AGL
  • Broken at 1,500' AGL
Conditions
  • Light Rain
  • Mist
Temporary Apr-25 @ 18:00 - Apr-26 @ 07:00
Wind Visibility
Variable at 27 knots 1,207 meters
Clouds
  • Broken at 300' AGL
  • Broken at 2,000' AGL
Conditions
  • Thunderstorm
  • Rain
  • Squalls
From Apr-26 @ 07:00 - Apr-26 @ 18:00
Wind Visibility
270° at 12 knots
 Gusting to 21 knots
10,000+ meters
Clouds
  • Broken at 1,500' AGL
Temporary Apr-26 @ 07:00 - Apr-26 @ 18:00
Wind Visibility
270° at 17 knots
 Gusting to 27 knots
2,993 meters
Clouds
  • Broken at 500' AGL
  • Scattered at 2,000' AGL
Conditions
  • Light Rain